Time;durP1;ratioP1;P1;durP2;ratioP2;P2;SDS_P1;SDS_P2;PMS_P1;PMS_P2;Temp;Humidity;BMP_temperature;BMP_pressure;BME280_temperature;BME280_humidity;BME280_pressure;Samples;Min_cycle;Max_cycle;Signal;HPM_P1;HPM_P2
2021/10/30 00:00:23;;;;;;;133.07;70.47;;;;;;;1.79;71.85;101066.09;1420502;91;21610;-87
2021/10/30 00:02:51;;;;;;;151.30;72.58;;;;;;;1.82;71.94;101065.11;1423001;92;22445;-88
2021/10/30 00:05:18;;;;;;;161.95;77.10;;;;;;;1.85;72.23;101070.17;1420411;92;21477;-88
2021/10/30 00:07:45;;;;;;;156.67;76.95;;;;;;;1.93;71.32;101071.95;1416941;91;22337;-88
2021/10/30 00:10:14;;;;;;;150.95;73.33;;;;;;;2.00;71.88;101070.70;1427123;90;21358;-88
2021/10/30 00:12:42;;;;;;;153.80;76.40;;;;;;;2.03;71.64;101070.08;1379996;90;22224;-87
2021/10/30 00:15:12;;;;;;;159.77;80.67;;;;;;;2.07;71.25;101070.77;1425225;90;21475;-88
2021/10/30 00:17:39;;;;;;;149.25;78.02;;;;;;;2.10;71.17;101067.16;1423554;90;21553;-86
2021/10/30 00:20:07;;;;;;;158.13;75.27;;;;;;;2.17;70.86;101073.30;1413051;92;21601;-87
2021/10/30 00:22:35;;;;;;;150.65;75.83;;;;;;;2.26;70.84;101071.52;1417627;92;22303;-87
2021/10/30 00:25:03;;;;;;;145.83;73.07;;;;;;;2.36;71.11;101074.97;1413738;91;21601;-90
2021/10/30 00:27:31;;;;;;;156.23;78.40;;;;;;;2.37;70.96;101068.84;1412411;92;22233;-88
2021/10/30 00:29:58;;;;;;;162.73;80.67;;;;;;;2.34;70.62;101072.91;1409453;92;22583;-86
2021/10/30 00:32:25;;;;;;;159.00;79.87;;;;;;;2.29;70.81;101069.69;1415361;92;21453;-89
2021/10/30 00:34:52;;;;;;;158.07;77.47;;;;;;;2.24;70.78;101077.75;1407269;92;21640;-86
2021/10/30 00:37:20;;;;;;;148.95;79.12;;;;;;;2.21;70.28;101070.91;1408403;92;21520;-86
2021/10/30 00:39:47;;;;;;;141.17;73.60;;;;;;;2.22;70.86;101075.70;1421163;92;21402;-86
2021/10/30 00:42:14;;;;;;;159.57;78.77;;;;;;;2.13;71.97;101074.39;1413300;92;21875;-86
2021/10/30 00:44:41;;;;;;;148.50;77.73;;;;;;;2.03;72.45;101075.30;1408107;92;21588;-86
2021/10/30 00:47:08;;;;;;;157.47;79.27;;;;;;;1.98;72.25;101073.84;1412527;92;22023;-86
2021/10/30 00:49:35;;;;;;;141.12;74.58;;;;;;;1.98;72.35;101066.01;1407582;92;21663;-87
2021/10/30 00:52:04;;;;;;;142.43;73.35;;;;;;;1.93;72.69;101064.11;1405530;92;21351;-87
2021/10/30 00:54:36;;;;;;;143.13;76.67;;;;;;;1.82;73.46;101061.19;1407976;92;22531;-87
2021/10/30 00:57:04;;;;;;;159.95;81.00;;;;;;;1.78;72.95;101065.27;1407085;92;21583;-87
2021/10/30 00:59:31;;;;;;;164.37;78.02;;;;;;;1.85;73.31;101059.73;1401116;92;21461;-89
2021/10/30 01:01:58;;;;;;;142.73;77.10;;;;;;;1.84;74.10;101052.80;1406411;92;21491;-89
2021/10/30 01:04:25;;;;;;;144.72;73.15;;;;;;;1.82;73.77;101049.45;1407948;92;21828;-91
2021/10/30 01:06:55;;;;;;;138.82;75.17;;;;;;;1.81;73.18;101053.80;1419792;91;21460;-89
2021/10/30 01:09:22;;;;;;;152.95;76.72;;;;;;;1.82;73.05;101059.89;1413038;91;21402;-89
2021/10/30 01:11:52;;;;;;;155.52;78.60;;;;;;;1.79;72.94;101059.11;1410161;91;22990;-90
2021/10/30 01:14:21;;;;;;;158.27;78.63;;;;;;;1.88;72.21;101056.97;1401881;92;21668;-88
2021/10/30 01:17:05;;;;;;;157.43;78.23;;;;;;;1.93;72.71;101054.98;1410416;91;22121;-87
2021/10/30 01:19:34;;;;;;;145.10;75.20;;;;;;;1.89;72.74;101056.03;1411869;92;21617;-87
2021/10/30 01:22:03;;;;;;;152.20;79.95;;;;;;;1.87;72.34;101053.95;1405322;92;21627;-87
2021/10/30 01:24:30;;;;;;;150.12;77.55;;;;;;;1.86;72.05;101053.11;1408333;91;21424;-87
2021/10/30 01:26:57;;;;;;;145.03;75.27;;;;;;;1.85;71.77;101048.83;1405027;91;21425;-87
2021/10/30 01:29:25;;;;;;;157.37;80.50;;;;;;;1.84;71.86;101058.02;1413339;92;21893;-87
2021/10/30 01:31:53;;;;;;;155.35;78.17;;;;;;;1.90;71.79;101059.89;1412448;92;21388;-86
2021/10/30 01:34:25;;;;;;;158.57;79.12;;;;;;;1.97;71.77;101059.11;1406390;92;22407;-86
2021/10/30 01:36:52;;;;;;;147.53;74.22;;;;;;;1.98;72.10;101051.19;1412574;91;22370;-86
2021/10/30 01:39:22;;;;;;;155.48;76.35;;;;;;;1.95;71.72;101054.41;1408506;92;21409;-86
2021/10/30 01:41:49;;;;;;;154.85;76.28;;;;;;;1.87;71.05;101055.25;1405043;92;22434;-86
2021/10/30 01:44:16;;;;;;;150.20;75.57;;;;;;;1.85;70.98;101054.51;1412219;91;21505;-86
2021/10/30 01:46:43;;;;;;;139.85;73.28;;;;;;;1.83;71.09;101058.95;1407619;92;21357;-86
2021/10/30 01:49:10;;;;;;;159.80;77.92;;;;;;;1.75;71.89;101062.77;1404005;92;21432;-87
2021/10/30 01:51:38;;;;;;;164.30;79.07;;;;;;;1.70;72.50;101060.03;1414647;92;21409;-88
2021/10/30 01:54:05;;;;;;;134.97;70.83;;;;;;;1.70;71.74;101062.17;1415527;92;22400;-87
2021/10/30 01:56:32;;;;;;;142.00;73.72;;;;;;;1.75;71.57;101073.67;1415766;92;22815;-87
2021/10/30 01:58:59;;;;;;;149.93;74.37;;;;;;;1.71;72.20;101063.85;1410985;92;21439;-88
2021/10/30 02:01:26;;;;;;;140.37;69.60;;;;;;;1.64;73.15;101067.70;1409434;92;21565;-87
2021/10/30 02:03:53;;;;;;;139.30;73.47;;;;;;;1.54;73.01;101065.14;1411722;92;21559;-88
2021/10/30 02:06:21;;;;;;;145.22;73.55;;;;;;;1.53;72.52;101062.16;1414286;92;21402;-88
2021/10/30 02:08:50;;;;;;;145.92;71.22;;;;;;;1.49;73.63;101057.52;1411214;92;22311;-88
2021/10/30 02:11:17;;;;;;;130.60;70.42;;;;;;;1.43;73.52;101058.28;1411694;92;22459;-88
2021/10/30 02:13:44;;;;;;;133.85;72.22;;;;;;;1.38;73.21;101047.22;1392269;92;21336;-88
2021/10/30 02:16:13;;;;;;;129.53;70.62;;;;;;;1.28;73.63;101043.75;1422403;91;21611;-88
2021/10/30 02:18:41;;;;;;;145.40;74.72;;;;;;;1.22;73.97;101049.27;1432271;90;21515;-88
2021/10/30 02:21:09;;;;;;;143.95;74.17;;;;;;;1.28;73.12;101050.27;1428552;91;21390;-87
2021/10/30 02:23:36;;;;;;;137.37;72.17;;;;;;;1.32;73.63;101047.92;1428950;91;21374;-85
2021/10/30 02:26:04;;;;;;;143.85;76.57;;;;;;;1.31;73.92;101047.52;1430467;91;21537;-86
2021/10/30 02:28:31;;;;;;;143.13;74.17;;;;;;;1.29;74.30;101043.29;1428045;91;21404;-88
2021/10/30 02:30:58;;;;;;;158.80;75.00;;;;;;;1.29;73.51;101048.04;1426532;90;21952;-87
2021/10/30 02:33:25;;;;;;;147.05;73.52;;;;;;;1.30;73.61;101050.22;1431281;90;22365;-88
2021/10/30 02:35:52;;;;;;;148.47;72.62;;;;;;;1.27;74.10;101049.90;1430000;90;22395;-87
2021/10/30 02:38:19;;;;;;;145.45;70.67;;;;;;;1.25;73.81;101047.81;1420233;90;21537;-88
2021/10/30 02:40:46;;;;;;;133.50;73.70;;;;;;;1.19;74.23;101047.27;1425638;90;23498;-89
2021/10/30 02:43:14;;;;;;;134.63;73.20;;;;;;;1.15;74.36;101049.15;1426340;90;21547;-90
2021/10/30 02:45:41;;;;;;;138.55;77.30;;;;;;;1.18;74.11;101058.59;1421988;90;21908;-89
2021/10/30 02:48:08;;;;;;;153.25;76.02;;;;;;;1.19;74.62;101054.63;1434352;90;21456;-89
2021/10/30 02:50:35;;;;;;;174.00;88.20;;;;;;;1.17;74.59;101054.30;1426453;90;23641;-88
2021/10/30 02:53:02;;;;;;;162.97;83.95;;;;;;;1.09;75.09;101056.83;1426265;90;21360;-88
2021/10/30 02:55:29;;;;;;;153.82;76.53;;;;;;;1.06;75.23;101054.34;1431264;90;21404;-89
2021/10/30 02:57:56;;;;;;;141.92;74.05;;;;;;;1.02;75.12;101054.57;1418272;90;21360;-88
2021/10/30 03:00:23;;;;;;;139.50;72.53;;;;;;;1.03;74.92;101058.39;1429341;90;22292;-88
2021/10/30 03:02:51;;;;;;;139.22;71.33;;;;;;;1.02;74.42;101050.66;1426430;91;21451;-88
2021/10/30 03:05:19;;;;;;;139.70;70.78;;;;;;;1.06;73.89;101053.50;1432259;91;22358;-89
2021/10/30 03:07:46;;;;;;;141.30;69.92;;;;;;;1.11;73.58;101056.28;1424111;90;23362;-88
2021/10/30 03:10:13;;;;;;;127.45;68.70;;;;;;;1.14;73.88;101052.69;1434418;91;21419;-88
2021/10/30 03:12:40;;;;;;;141.70;72.03;;;;;;;1.18;73.35;101062.08;1435095;90;21352;-88
2021/10/30 03:15:09;;;;;;;121.82;63.10;;;;;;;1.26;73.92;101056.48;1421266;90;22478;-87
2021/10/30 03:17:36;;;;;;;136.45;67.78;;;;;;;1.22;73.99;101061.46;1419858;90;21582;-87
2021/10/30 03:20:05;;;;;;;145.15;66.92;;;;;;;1.09;74.60;101057.27;1431425;91;22455;-87
2021/10/30 03:22:32;;;;;;;119.40;66.28;;;;;;;1.01;74.72;101054.20;1418233;91;21526;-88
2021/10/30 03:24:59;;;;;;;127.12;67.15;;;;;;;1.02;74.08;101059.78;1428273;91;21620;-89
2021/10/30 03:27:27;;;;;;;121.35;65.15;;;;;;;1.01;73.80;101068.53;1425643;91;21331;-87
2021/10/30 03:29:55;;;;;;;122.55;67.58;;;;;;;0.94;73.87;101067.95;1427003;91;21433;-88
2021/10/30 03:32:22;;;;;;;133.25;72.10;;;;;;;0.89;74.64;101063.39;1424034;91;22351;-87
2021/10/30 03:34:49;;;;;;;140.68;70.85;;;;;;;0.75;75.03;101066.66;1429457;91;21442;-88
2021/10/30 03:37:16;;;;;;;125.62;67.42;;;;;;;0.61;75.24;101069.87;1432982;91;21545;-88
2021/10/30 03:39:43;;;;;;;126.47;66.67;;;;;;;0.50;74.76;101071.26;1422076;91;21397;-88
2021/10/30 03:42:11;;;;;;;119.57;65.67;;;;;;;0.49;74.11;101064.34;1426938;91;21441;-88
2021/10/30 03:44:38;;;;;;;122.37;64.22;;;;;;;0.44;74.31;101069.31;1425802;91;22396;-88
2021/10/30 03:47:05;;;;;;;118.33;63.80;;;;;;;0.43;74.16;101072.84;1425423;91;21434;-90
2021/10/30 03:49:32;;;;;;;129.45;63.02;;;;;;;0.42;73.63;101069.82;1424122;91;21449;-89
2021/10/30 03:52:00;;;;;;;126.42;64.77;;;;;;;0.41;73.29;101069.45;1425636;91;21368;-90
2021/10/30 03:54:27;;;;;;;122.95;62.65;;;;;;;0.31;74.26;101077.25;1420878;91;21890;-87
2021/10/30 03:56:55;;;;;;;122.20;66.90;;;;;;;0.35;73.98;101073.63;1429584;91;21427;-86
2021/10/30 03:59:22;;;;;;;116.57;61.83;;;;;;;0.37;74.54;101077.44;1430894;91;23538;-87
2021/10/30 04:01:49;;;;;;;187.30;69.53;;;;;;;0.36;74.13;101067.48;1417105;91;21421;-87
2021/10/30 04:04:17;;;;;;;116.55;64.15;;;;;;;0.38;73.78;101070.87;1420606;91;21398;-87
2021/10/30 04:06:44;;;;;;;113.37;62.95;;;;;;;0.41;74.23;101068.14;1416066;91;21420;-87
2021/10/30 04:09:11;;;;;;;176.40;65.60;;;;;;;0.47;73.99;101075.30;1416724;92;21907;-87
2021/10/30 04:11:38;;;;;;;138.65;64.17;;;;;;;0.59;73.59;101071.69;1420261;92;21369;-87
2021/10/30 04:14:05;;;;;;;120.45;62.05;;;;;;;0.66;74.54;101068.34;1418069;92;21361;-87
2021/10/30 04:16:34;;;;;;;122.35;57.95;;;;;;;0.66;75.17;101065.31;1417386;90;21490;-87
2021/10/30 04:19:02;;;;;;;114.00;63.30;;;;;;;0.60;74.83;101065.55;1428279;92;21489;-87
2021/10/30 04:21:30;;;;;;;125.05;58.05;;;;;;;0.56;74.48;101062.70;1421743;91;21393;-88
2021/10/30 04:23:58;;;;;;;112.30;61.42;;;;;;;0.50;75.06;101063.45;1420282;92;21474;-88
2021/10/30 04:26:26;;;;;;;117.13;59.65;;;;;;;0.36;75.90;101068.80;1421313;91;21520;-87
2021/10/30 04:28:55;;;;;;;115.88;63.00;;;;;;;0.34;75.38;101067.16;1423887;92;21387;-87
2021/10/30 04:31:25;;;;;;;116.70;61.85;;;;;;;0.29;75.58;101062.60;1416388;92;21356;-87
2021/10/30 04:33:54;;;;;;;117.40;63.60;;;;;;;0.21;74.67;101062.95;1416212;91;21475;-85
2021/10/30 04:36:25;;;;;;;119.35;62.90;;;;;;;0.19;74.55;101063.47;1420603;92;21416;-88
2021/10/30 04:38:52;;;;;;;115.40;64.70;;;;;;;0.16;74.67;101063.14;1418597;92;21681;-87
2021/10/30 04:41:19;;;;;;;122.20;62.80;;;;;;;0.15;75.19;101064.52;1418551;92;21645;-87
2021/10/30 04:43:48;;;;;;;123.67;62.45;;;;;;;0.18;75.05;101072.20;1418978;91;21430;-88
2021/10/30 04:46:19;;;;;;;119.33;61.18;;;;;;;0.21;74.55;101065.56;1428363;92;21341;-88
2021/10/30 04:48:47;;;;;;;108.03;58.75;;;;;;;0.26;75.70;101067.95;1432141;92;22355;-88
2021/10/30 04:51:15;;;;;;;118.08;60.70;;;;;;;0.28;75.38;101066.97;1418834;91;22546;-88
2021/10/30 04:53:44;;;;;;;114.62;61.28;;;;;;;0.30;74.87;101060.41;1425292;92;22458;-88
2021/10/30 04:56:12;;;;;;;123.82;63.35;;;;;;;0.29;74.28;101061.30;1414276;92;21446;-88
2021/10/30 04:58:44;;;;;;;131.47;61.70;;;;;;;0.28;74.08;101066.12;1428841;91;22443;-89
2021/10/30 05:01:13;;;;;;;116.70;59.35;;;;;;;0.30;74.00;101063.85;1415425;91;21423;-90
2021/10/30 05:03:41;;;;;;;117.20;57.75;;;;;;;0.32;73.92;101061.20;1417435;92;22620;-89
2021/10/30 05:06:10;;;;;;;120.95;61.20;;;;;;;0.32;74.41;101062.04;1424651;92;21534;-90
2021/10/30 05:08:37;;;;;;;126.55;63.02;;;;;;;0.29;75.00;101064.78;1430317;92;21401;-88
2021/10/30 05:11:08;;;;;;;118.50;60.08;;;;;;;0.27;75.38;101066.59;1413247;91;21490;-90
2021/10/30 05:13:35;;;;;;;124.97;62.30;;;;;;;0.23;75.49;101063.71;1423598;91;22525;-91
2021/10/30 05:16:03;;;;;;;184.22;91.25;;;;;;;0.21;75.07;101061.66;1419116;91;21505;-91
2021/10/30 05:18:30;;;;;;;116.08;62.73;;;;;;;0.10;73.86;101062.56;1441712;90;21355;-91
2021/10/30 05:20:57;;;;;;;126.62;65.72;;;;;;;0.02;74.55;101062.88;1442672;89;21338;-91
2021/10/30 05:23:24;;;;;;;115.28;59.33;;;;;;;-0.02;74.15;101062.17;1442874;89;21480;-92
2021/10/30 05:25:51;;;;;;;118.53;63.48;;;;;;;-0.06;73.76;101064.52;1440807;89;21399;-91
2021/10/30 05:28:22;;;;;;;112.75;60.43;;;;;;;-0.09;73.67;101065.92;1438531;89;21392;-91
2021/10/30 05:30:51;;;;;;;108.42;60.05;;;;;;;-0.07;73.77;101069.77;1444637;90;21480;-92
2021/10/30 05:33:18;;;;;;;123.02;65.12;;;;;;;-0.04;73.89;101065.28;1441415;90;22373;-90
2021/10/30 05:35:45;;;;;;;123.25;62.50;;;;;;;-0.05;73.88;101075.77;1448368;89;22485;-89
2021/10/30 05:38:16;;;;;;;129.97;66.80;;;;;;;-0.05;73.75;101074.01;1447711;90;21325;-89
2021/10/30 05:40:46;;;;;;;118.05;67.10;;;;;;;-0.04;73.54;101070.48;1465387;89;22353;-88
2021/10/30 05:43:15;;;;;;;104.32;55.75;;;;;;;-0.03;73.57;101074.80;1444250;90;21354;-90
2021/10/30 05:45:45;;;;;;;147.35;72.37;;;;;;;0.02;73.63;101069.84;1451667;90;21362;-89
2021/10/30 05:48:15;;;;;;;117.17;61.13;;;;;;;0.04;72.82;101075.84;1463104;90;21347;-90
2021/10/30 05:50:42;;;;;;;120.20;60.65;;;;;;;0.08;72.16;101072.19;1449591;89;21406;-88
2021/10/30 05:53:09;;;;;;;110.72;57.10;;;;;;;0.12;72.06;101077.21;1448352;89;21333;-89
2021/10/30 05:55:37;;;;;;;94.60;54.33;;;;;;;0.18;71.87;101074.80;1441151;90;22249;-90
2021/10/30 05:58:04;;;;;;;105.50;58.20;;;;;;;0.18;71.47;101076.11;1443733;90;21407;-89
2021/10/30 06:00:31;;;;;;;119.60;57.20;;;;;;;0.22;71.89;101076.35;1443748;90;21384;-89
2021/10/30 06:02:59;;;;;;;114.57;57.17;;;;;;;0.29;71.91;101067.37;1451366;90;21383;-89
2021/10/30 06:05:27;;;;;;;109.35;58.05;;;;;;;0.31;72.35;101072.04;1441983;90;21347;-89
2021/10/30 06:07:56;;;;;;;106.55;57.98;;;;;;;0.40;72.60;101079.48;1447762;90;21421;-89
2021/10/30 06:10:24;;;;;;;112.75;63.00;;;;;;;0.50;72.82;101079.08;1443042;90;21399;-88
2021/10/30 06:12:51;;;;;;;105.78;58.28;;;;;;;0.59;73.49;101082.57;1429692;90;22529;-89
2021/10/30 06:15:18;;;;;;;106.17;59.65;;;;;;;0.66;73.62;101089.19;1443030;90;21369;-91
2021/10/30 06:17:45;;;;;;;108.15;62.17;;;;;;;0.74;73.28;101085.78;1447442;90;21466;-90
2021/10/30 06:20:13;;;;;;;124.60;64.15;;;;;;;0.86;73.28;101088.30;1442459;90;22477;-91
2021/10/30 06:22:45;;;;;;;127.90;65.42;;;;;;;0.98;73.58;101094.28;1446476;90;21414;-90
2021/10/30 06:25:12;;;;;;;103.05;59.58;;;;;;;1.10;73.90;101096.31;1446233;90;21370;-91
2021/10/30 06:27:40;;;;;;;117.00;58.75;;;;;;;1.24;74.02;101103.50;1447277;90;21451;-91
2021/10/30 06:30:10;;;;;;;108.85;58.33;;;;;;;1.28;73.98;101099.82;1446383;90;22337;-91
2021/10/30 06:32:37;;;;;;;103.50;60.10;;;;;;;1.35;73.90;101102.55;1443424;90;21347;-92
2021/10/30 06:35:06;;;;;;;125.15;66.72;;;;;;;1.46;74.11;101101.17;1436548;90;21347;-90
2021/10/30 06:37:34;;;;;;;135.90;68.72;;;;;;;1.54;74.52;101108.19;1441539;90;22397;-91
2021/10/30 06:40:01;;;;;;;147.90;72.13;;;;;;;1.69;74.67;101118.34;1436188;89;21429;-90
2021/10/30 06:42:28;;;;;;;136.77;74.93;;;;;;;1.83;75.15;101120.29;1444929;89;21662;-90
2021/10/30 06:44:56;;;;;;;136.50;72.87;;;;;;;1.97;74.73;101123.07;1447957;89;23757;-90
2021/10/30 06:47:23;;;;;;;118.17;66.57;;;;;;;2.16;74.79;101125.63;1450653;90;21748;-88
2021/10/30 06:49:52;;;;;;;136.60;69.80;;;;;;;2.31;75.48;101126.16;1446835;90;21686;-88
2021/10/30 06:52:19;;;;;;;123.73;68.63;;;;;;;2.43;74.81;101125.99;1448119;89;21869;-87
2021/10/30 06:54:46;;;;;;;122.37;68.03;;;;;;;2.64;74.65;101130.56;1451881;89;21389;-88
2021/10/30 06:57:14;;;;;;;116.70;66.43;;;;;;;2.89;74.21;101134.06;1453796;90;22460;-89
2021/10/30 06:59:41;;;;;;;117.13;70.60;;;;;;;3.15;73.72;101133.50;1444108;90;21473;-89
2021/10/30 07:02:11;;;;;;;124.77;67.93;;;;;;;3.44;73.38;101136.31;1450498;90;21658;-87
2021/10/30 07:04:38;;;;;;;115.47;69.37;;;;;;;3.70;73.36;101137.95;1444863;90;21608;-88
2021/10/30 07:07:06;;;;;;;128.53;70.63;;;;;;;3.91;72.44;101143.27;1435407;89;21583;-91
2021/10/30 07:09:33;;;;;;;127.40;66.63;;;;;;;4.09;72.03;101132.22;1448702;89;23217;-90
2021/10/30 07:12:00;;;;;;;106.47;61.63;;;;;;;4.27;71.79;101131.61;1448254;89;21511;-89
2021/10/30 07:14:27;;;;;;;119.50;65.53;;;;;;;4.48;71.31;101134.27;1436909;89;21723;-89
2021/10/30 07:16:54;;;;;;;110.00;65.60;;;;;;;4.69;71.03;101134.78;1444575;90;21648;-91
2021/10/30 07:19:21;;;;;;;113.57;63.80;;;;;;;5.09;70.78;101127.09;1429858;90;21965;-92
2021/10/30 07:21:48;;;;;;;129.53;66.53;;;;;;;5.09;70.78;101127.09;1441570;90;22951;-91
2021/10/30 07:24:15;;;;;;;120.47;66.30;;;;;;;5.55;69.84;101133.83;1433540;90;21819;-90
2021/10/30 07:26:42;;;;;;;112.07;65.27;;;;;;;5.55;69.84;101133.83;1441825;90;21984;-89
2021/10/30 07:29:09;;;;;;;122.47;65.63;;;;;;;5.75;69.26;101134.70;1438811;90;24019;-92
2021/10/30 07:31:37;;;;;;;111.20;63.83;;;;;;;6.00;69.08;101138.41;1411957;91;22153;-93
2021/10/30 07:34:04;;;;;;;103.97;60.73;;;;;;;6.26;68.73;101134.05;1422082;90;22097;-92
2021/10/30 07:36:31;;;;;;;107.17;59.50;;;;;;;6.51;68.29;101128.83;1450910;90;22171;-93
2021/10/30 07:39:08;;;;;;;134.40;64.93;;;;;;;6.78;67.77;101130.03;1443853;90;23120;-93
2021/10/30 07:41:35;;;;;;;100.80;60.20;;;;;;;7.04;67.65;101120.80;1424387;90;22247;-92
2021/10/30 07:44:03;;;;;;;110.37;63.43;;;;;;;7.23;66.95;101122.50;1437228;90;22354;-94
2021/10/30 07:46:31;;;;;;;91.63;54.37;;;;;;;7.45;66.45;101126.22;1415095;90;23555;-91
2021/10/30 07:49:06;;;;;;;101.60;54.17;;;;;;;7.66;66.02;101121.22;1416167;90;22434;-94
2021/10/30 07:51:33;;;;;;;92.23;49.93;;;;;;;7.88;65.68;101125.73;1430949;90;21505;-93
2021/10/30 07:54:01;;;;;;;98.90;52.80;;;;;;;8.12;65.24;101124.41;1418322;90;21408;-92
2021/10/30 07:56:28;;;;;;;81.43;46.50;;;;;;;8.32;64.77;101128.19;1443376;90;21453;-90
2021/10/30 07:58:56;;;;;;;83.83;44.90;;;;;;;8.53;64.38;101125.25;1445495;90;21918;-91
2021/10/30 08:01:23;;;;;;;75.03;46.17;;;;;;;8.77;63.99;101124.31;1417460;90;21417;-92
2021/10/30 08:03:50;;;;;;;95.33;45.50;;;;;;;9.00;63.63;101114.60;1414931;91;21372;-93
2021/10/30 08:06:18;;;;;;;73.83;44.30;;;;;;;9.22;62.77;101111.95;1445571;90;21364;-93
2021/10/30 08:08:46;;;;;;;73.97;43.87;;;;;;;9.37;62.21;101125.73;1452714;90;21334;-93
2021/10/30 08:11:13;;;;;;;81.23;44.33;;;;;;;9.50;61.65;101117.67;1439862;90;21430;-93
2021/10/30 08:13:40;;;;;;;78.10;42.93;;;;;;;9.60;61.18;101113.31;1425383;90;21446;-92
2021/10/30 08:16:07;;;;;;;68.97;39.93;;;;;;;9.72;61.30;101111.47;1424546;91;21637;-92
2021/10/30 08:18:35;;;;;;;86.97;43.30;;;;;;;9.92;61.02;101111.16;1433351;90;21535;-93
2021/10/30 08:21:02;;;;;;;73.07;43.57;;;;;;;10.12;60.33;101105.53;1441468;90;21340;-93
2021/10/30 08:23:29;;;;;;;74.23;42.90;;;;;;;10.28;60.19;101103.81;1446491;90;21362;-93
2021/10/30 08:25:56;;;;;;;66.67;42.20;;;;;;;10.45;59.86;101105.04;1440818;89;22249;-93
2021/10/30 08:28:24;;;;;;;65.30;40.70;;;;;;;10.55;58.83;101105.42;1442762;90;21469;-93
2021/10/30 08:30:51;;;;;;;62.07;42.53;;;;;;;10.74;58.94;101102.05;1439841;90;21346;-91
2021/10/30 08:33:18;;;;;;;74.47;44.77;;;;;;;10.93;58.41;101101.77;1446522;90;21377;-92
2021/10/30 08:35:45;;;;;;;71.27;36.97;;;;;;;11.17;58.25;101100.13;1438581;90;21435;-91
2021/10/30 08:38:13;;;;;;;61.47;35.47;;;;;;;11.30;57.89;101100.22;1441516;90;21347;-92
2021/10/30 08:40:41;;;;;;;65.80;36.80;;;;;;;11.36;56.60;101096.67;1445310;89;22580;-91
2021/10/30 08:43:11;;;;;;;65.23;34.60;;;;;;;11.43;56.63;101099.14;1445336;90;21377;-90
2021/10/30 08:45:39;;;;;;;78.42;35.68;;;;;;;11.47;55.68;101092.58;1466136;89;21494;-92
2021/10/30 08:48:06;;;;;;;62.67;34.40;;;;;;;11.53;55.27;101091.54;1458985;89;21338;-92
2021/10/30 08:50:33;;;;;;;51.03;32.37;;;;;;;11.63;55.16;101089.41;1463509;89;21405;-93
2021/10/30 08:53:00;;;;;;;50.57;34.73;;;;;;;11.79;54.55;101091.00;1459712;89;22116;-93
2021/10/30 08:55:28;;;;;;;62.03;36.07;;;;;;;11.94;54.60;101093.64;1468934;89;23329;-92
2021/10/30 08:58:08;;;;;;;67.60;37.03;;;;;;;12.16;54.83;101096.47;1461362;89;22285;-93
2021/10/30 09:00:47;;;;;;;57.17;34.97;;;;;;;12.29;53.13;101100.66;1451834;88;21523;-94
2021/10/30 09:03:18;;;;;;;50.37;34.07;;;;;;;12.63;53.24;101103.66;1420201;89;22340;-92
2021/10/30 09:05:52;;;;;;;46.50;31.70;;;;;;;13.29;52.34;101098.69;1494704;89;22286;-92
2021/10/30 09:08:23;;;;;;;58.77;34.33;;;;;;;13.76;48.02;101102.02;1452609;89;21392;-92
2021/10/30 09:10:59;;;;;;;57.27;34.83;;;;;;;14.52;48.16;101096.64;1419549;89;21750;-92
2021/10/30 09:13:31;;;;;;;68.70;35.97;;;;;;;15.03;46.39;101094.09;1437795;90;23383;-91
2021/10/30 09:16:00;;;;;;;50.27;35.77;;;;;;;15.48;43.63;101096.41;1343820;94;21324;-93
2021/10/30 09:18:32;;;;;;;54.27;37.77;;;;;;;16.18;45.34;101101.32;1390609;88;21279;-93
2021/10/30 09:21:15;;;;;;;57.07;40.37;;;;;;;16.76;43.87;101099.89;1544268;88;21149;-94
2021/10/30 09:23:59;;;;;;;57.77;38.50;;;;;;;17.25;40.73;101088.52;1534140;89;21097;-92
2021/10/30 09:26:31;;;;;;;72.37;35.97;;;;;;;17.74;41.48;101084.70;1533487;89;21201;-93
2021/10/30 09:29:05;;;;;;;48.10;34.67;;;;;;;18.17;40.50;101084.55;1537355;89;21244;-89
2021/10/30 09:31:33;;;;;;;51.85;35.88;;;;;;;18.39;39.27;101081.50;1534485;89;21251;-88
2021/10/30 09:34:05;;;;;;;53.92;37.98;;;;;;;18.81;39.33;101074.69;1368223;89;21228;-88
2021/10/30 09:36:37;;;;;;;50.30;34.73;;;;;;;19.15;37.92;101077.29;1461207;89;21310;-92
2021/10/30 09:39:10;;;;;;;51.70;37.10;;;;;;;18.97;36.03;101078.21;1536261;89;21141;-93
2021/10/30 09:41:43;;;;;;;56.70;36.15;;;;;;;19.31;37.78;101074.39;1386032;90;21267;-93
2021/10/30 09:44:24;;;;;;;58.75;35.43;;;;;;;19.63;36.89;101074.11;1401206;89;22373;-83
2021/10/30 09:46:57;;;;;;;58.58;37.48;;;;;;;19.95;36.41;101071.44;1464156;89;21412;-84
2021/10/30 09:49:29;;;;;;;47.15;35.88;;;;;;;20.14;36.10;101074.81;1462742;89;21977;-91
2021/10/30 09:52:08;;;;;;;55.43;37.48;;;;;;;20.40;35.91;101067.45;1449933;88;22408;-91
2021/10/30 09:54:47;;;;;;;53.02;34.95;;;;;;;20.78;34.36;101060.87;1448763;87;21562;-90
2021/10/30 09:57:29;;;;;;;60.55;36.73;;;;;;;20.78;34.36;101060.87;1444581;89;22389;-90
2021/10/30 09:59:59;;;;;;;50.12;36.45;;;;;;;20.84;33.90;101066.80;1461209;89;21428;-90
2021/10/30 10:02:28;;;;;;;56.85;38.65;;;;;;;21.12;33.96;101050.05;1466550;89;22212;-89
2021/10/30 10:05:01;;;;;;;55.10;37.48;;;;;;;21.38;32.83;101053.89;1450598;89;22616;-90
2021/10/30 10:07:29;;;;;;;49.38;37.98;;;;;;;21.31;32.40;101050.30;1438209;88;22449;-90
2021/10/30 10:09:57;;;;;;;56.20;38.40;;;;;;;21.30;32.47;101052.69;1446631;89;22532;-91
2021/10/30 10:12:25;;;;;;;49.60;39.55;;;;;;;21.16;32.42;101049.95;1451665;89;23309;-90
2021/10/30 10:14:53;;;;;;;56.58;38.28;;;;;;;21.21;32.22;101038.58;1438090;89;21511;-92
2021/10/30 10:17:20;;;;;;;58.60;41.00;;;;;;;21.51;32.47;101043.13;1442790;89;21384;-91
2021/10/30 10:19:49;;;;;;;52.65;38.15;;;;;;;21.77;32.28;101034.23;1442051;89;21436;-89
2021/10/30 10:22:17;;;;;;;58.25;36.45;;;;;;;21.94;31.56;101034.66;1352231;90;21414;-89
2021/10/30 10:24:44;;;;;;;61.92;36.83;;;;;;;21.88;31.19;101031.45;1353230;91;21276;-88
2021/10/30 10:27:11;;;;;;;51.98;37.30;;;;;;;21.95;31.11;101024.20;1354874;91;21343;-88
2021/10/30 10:29:56;;;;;;;52.83;36.23;;;;;;;22.11;31.10;101026.16;1519889;90;21254;-88
2021/10/30 10:32:26;;;;;;;55.92;38.08;;;;;;;22.05;31.20;101016.52;1518811;90;21320;-88
2021/10/30 10:35:06;;;;;;;49.60;35.38;;;;;;;22.20;31.54;101022.23;1331034;94;21451;-89
2021/10/30 10:37:35;;;;;;;52.58;36.35;;;;;;;22.18;30.89;101018.91;1368141;94;21222;-89
2021/10/30 10:40:05;;;;;;;45.15;36.08;;;;;;;22.46;30.88;101011.38;1339047;94;22278;-89
2021/10/30 10:42:40;;;;;;;51.33;35.30;;;;;;;22.74;30.75;101011.61;1439109;93;21424;-89
2021/10/30 10:45:15;;;;;;;53.08;35.45;;;;;;;22.89;29.97;101006.76;1383194;94;21462;-88
2021/10/30 10:47:50;;;;;;;40.33;31.20;;;;;;;22.94;29.68;100995.33;1389557;93;21600;-88
2021/10/30 10:50:34;;;;;;;48.75;33.20;;;;;;;22.56;27.62;100996.61;1405266;93;22332;-89
2021/10/30 10:53:07;;;;;;;43.65;30.30;;;;;;;22.45;29.34;100995.42;1399265;93;21549;-89
2021/10/30 10:55:47;;;;;;;52.90;32.30;;;;;;;22.66;29.56;100987.03;1397161;93;21534;-90
2021/10/30 10:58:16;;;;;;;;;;;;;;;22.61;29.10;100987.37;1398626;93;21438;-89
2021/10/30 11:01:11;;;;;;;47.13;32.73;;;;;;;22.59;29.59;100984.08;1385940;94;20298;-90
2021/10/30 11:03:44;;;;;;;37.95;28.98;;;;;;;22.71;29.50;100985.87;1386471;94;21630;-90
2021/10/30 11:06:11;;;;;;;31.45;25.75;;;;;;;22.56;29.32;100983.98;1385823;93;21381;-91
2021/10/30 11:08:39;;;;;;;36.53;26.10;;;;;;;22.59;29.17;100983.55;1384360;94;21354;-90
2021/10/30 11:11:17;;;;;;;42.85;26.50;;;;;;;22.63;28.57;100983.95;1400747;93;21386;-91
2021/10/30 11:14:01;;;;;;;44.48;26.23;;;;;;;22.67;29.29;100985.16;1385554;92;21467;-94
2021/10/30 11:16:42;;;;;;;39.65;25.48;;;;;;;22.58;29.09;100987.80;1386315;93;21615;-93